Time;durP1;ratioP1;P1;durP2;ratioP2;P2;SDS_P1;SDS_P2;PMS_P1;PMS_P2;Temp;Humidity;BMP_temperature;BMP_pressure;BME280_temperature;BME280_humidity;BME280_pressure;Samples;Min_cycle;Max_cycle;Signal;HPM_P1;HPM_P2
2023/05/02 00:00:39;;;;;;;0.90;0.80;;;9.30;99.90;;;;;;5056239;28;20458;-82
2023/05/02 00:03:06;;;;;;;1.07;1.07;;;9.30;99.90;;;;;;5055970;28;20470;-82
2023/05/02 00:05:34;;;;;;;3.03;2.20;;;9.30;99.90;;;;;;5055969;28;20505;-82
2023/05/02 00:08:02;;;;;;;1.70;1.47;;;9.30;99.90;;;;;;5056174;28;20812;-82
2023/05/02 00:10:29;;;;;;;1.80;1.10;;;9.30;99.90;;;;;;5055883;28;20871;-82
2023/05/02 00:12:56;;;;;;;2.33;1.60;;;9.30;99.90;;;;;;5055993;28;20470;-82
2023/05/02 00:15:23;;;;;;;1.53;1.20;;;9.30;99.90;;;;;;5055776;28;20450;-82
2023/05/02 00:17:49;;;;;;;1.87;1.27;;;9.20;99.90;;;;;;5055875;28;20450;-82
2023/05/02 00:20:16;;;;;;;1.07;0.90;;;9.20;99.90;;;;;;5055871;28;20481;-82
2023/05/02 00:22:43;;;;;;;3.93;1.43;;;9.30;99.90;;;;;;5055525;28;20565;-82
2023/05/02 00:25:14;;;;;;;1.70;1.23;;;9.20;99.90;;;;;;5055787;28;20459;-82
2023/05/02 00:27:41;;;;;;;1.30;1.20;;;9.30;99.90;;;;;;5055872;28;20438;-82
2023/05/02 00:30:09;;;;;;;1.57;0.97;;;9.20;99.90;;;;;;5055679;28;20482;-82
2023/05/02 00:32:36;;;;;;;2.00;1.80;;;9.20;99.90;;;;;;5055637;28;20470;-82
2023/05/02 00:35:04;;;;;;;1.70;1.13;;;9.20;99.90;;;;;;5055669;28;20504;-82
2023/05/02 00:37:30;;;;;;;1.63;1.03;;;9.10;99.90;;;;;;5055672;28;20822;-82
2023/05/02 00:39:58;;;;;;;1.90;1.10;;;9.10;99.90;;;;;;5055267;28;20977;-82
2023/05/02 00:42:28;;;;;;;1.60;1.23;;;9.10;99.90;;;;;;5055248;28;20977;-82
2023/05/02 00:44:54;;;;;;;3.03;2.00;;;9.10;99.90;;;;;;5055117;28;20453;-82
2023/05/02 00:47:21;;;;;;;1.87;1.77;;;9.10;99.90;;;;;;5055426;28;20458;-82
2023/05/02 00:49:49;;;;;;;3.80;2.33;;;9.00;99.90;;;;;;5055103;28;20828;-82
2023/05/02 00:52:16;;;;;;;3.97;1.77;;;9.00;99.90;;;;;;5055263;28;20470;-82
2023/05/02 00:54:44;;;;;;;2.53;2.00;;;9.10;99.90;;;;;;5055357;28;20447;-82
2023/05/02 00:57:10;;;;;;;1.40;1.30;;;9.10;99.90;;;;;;5054859;28;20438;-82
2023/05/02 00:59:39;;;;;;;0.90;0.90;;;9.00;99.90;;;;;;5055178;28;20811;-82
2023/05/02 01:02:21;;;;;;;1.23;1.13;;;9.00;99.90;;;;;;5054762;28;20494;-82
2023/05/02 01:05:02;;;;;;;1.73;1.27;;;9.00;99.90;;;;;;5055149;28;20431;-82
2023/05/02 01:07:51;;;;;;;2.03;1.00;;;8.90;99.90;;;;;;5055025;28;20438;-82
2023/05/02 01:10:26;;;;;;;1.27;1.17;;;8.90;99.90;;;;;;5054945;28;20482;-82
2023/05/02 01:12:59;;;;;;;1.93;1.37;;;8.90;99.90;;;;;;5054944;28;20470;-82
2023/05/02 01:15:28;;;;;;;1.40;1.30;;;8.90;99.90;;;;;;5054927;28;20872;-82
2023/05/02 01:17:56;;;;;;;1.90;0.97;;;8.90;99.90;;;;;;5054514;28;20874;-82
2023/05/02 01:20:26;;;;;;;2.60;1.90;;;8.90;99.90;;;;;;5054354;28;20791;-82
2023/05/02 01:22:55;;;;;;;2.30;2.10;;;8.90;99.90;;;;;;5054682;28;20469;-82
2023/05/02 01:25:29;;;;;;;2.10;1.33;;;9.00;99.90;;;;;;5054101;28;20443;-82
2023/05/02 01:28:09;;;;;;;2.80;1.43;;;9.00;99.90;;;;;;5054607;28;20443;-82
2023/05/02 01:30:41;;;;;;;1.20;1.20;;;9.00;99.90;;;;;;5054508;28;20470;-82
2023/05/02 01:33:10;;;;;;;5.20;2.07;;;8.90;99.90;;;;;;5054371;28;20477;-84
2023/05/02 01:35:38;;;;;;;3.23;2.10;;;8.90;99.90;;;;;;5054409;28;20457;-83
2023/05/02 01:38:06;;;;;;;1.70;1.60;;;8.90;99.90;;;;;;5053997;28;20447;-84
2023/05/02 01:40:35;;;;;;;1.20;1.10;;;8.90;99.90;;;;;;5054294;28;20450;-84
2023/05/02 01:43:04;;;;;;;4.07;1.93;;;8.90;99.90;;;;;;5054156;28;20812;-83
2023/05/02 01:45:35;;;;;;;1.20;1.10;;;8.90;99.90;;;;;;5054220;28;20443;-83
2023/05/02 01:48:05;;;;;;;2.40;1.60;;;8.90;99.90;;;;;;5054195;28;20469;-83
2023/05/02 01:50:31;;;;;;;1.67;1.37;;;8.90;99.90;;;;;;5054005;28;20859;-83
2023/05/02 01:53:00;;;;;;;2.00;1.50;;;8.90;99.90;;;;;;5053691;28;20470;-83
2023/05/02 01:55:28;;;;;;;3.60;1.93;;;8.80;99.90;;;;;;5054234;28;20431;-83
2023/05/02 01:57:56;;;;;;;1.40;1.30;;;8.90;99.90;;;;;;5053641;28;20442;-83
2023/05/02 02:00:25;;;;;;;2.03;1.33;;;8.90;99.90;;;;;;5053961;28;20442;-84
2023/05/02 02:02:54;;;;;;;1.80;1.43;;;8.80;99.90;;;;;;5053368;28;20490;-84
2023/05/02 02:05:24;;;;;;;1.10;1.00;;;8.80;99.90;;;;;;5053845;28;20443;-83
2023/05/02 02:07:51;;;;;;;1.80;1.20;;;8.80;99.90;;;;;;5053817;28;20446;-83
2023/05/02 02:10:18;;;;;;;2.23;1.47;;;8.70;99.90;;;;;;5053700;28;20478;-84
2023/05/02 02:12:51;;;;;;;1.20;1.00;;;8.70;99.90;;;;;;5053568;28;20474;-84
2023/05/02 02:15:21;;;;;;;3.50;1.50;;;8.80;99.90;;;;;;5053716;28;20439;-83
2023/05/02 02:17:52;;;;;;;4.00;1.70;;;8.80;99.90;;;;;;5053307;28;20935;-84
2023/05/02 02:20:19;;;;;;;3.00;1.30;;;8.70;99.90;;;;;;5053683;28;20423;-84
2023/05/02 02:22:48;;;;;;;1.90;1.10;;;8.70;99.90;;;;;;5053321;28;20465;-83
2023/05/02 02:25:17;;;;;;;2.30;1.70;;;8.60;99.90;;;;;;5053574;28;20442;-84
2023/05/02 02:27:44;;;;;;;2.10;1.83;;;8.60;99.90;;;;;;5053529;28;20453;-84
2023/05/02 02:30:11;;;;;;;2.20;1.37;;;8.60;99.90;;;;;;5053438;28;20478;-83
2023/05/02 02:32:38;;;;;;;2.90;1.33;;;8.60;99.90;;;;;;5053422;28;20466;-84
2023/05/02 02:35:06;;;;;;;3.00;2.00;;;8.60;99.90;;;;;;5053638;28;20451;-83
2023/05/02 02:37:34;;;;;;;2.27;1.60;;;8.60;99.90;;;;;;5053504;28;20459;-83
2023/05/02 02:40:08;;;;;;;1.83;1.60;;;8.60;99.90;;;;;;5053571;28;20457;-83
2023/05/02 02:42:41;;;;;;;1.07;0.97;;;8.60;99.90;;;;;;5053185;28;20466;-84
2023/05/02 02:45:23;;;;;;;2.13;1.43;;;8.60;99.90;;;;;;5053404;28;20438;-84
2023/05/02 02:47:56;;;;;;;2.00;1.10;;;8.60;99.90;;;;;;5053458;28;20438;-84
2023/05/02 02:50:29;;;;;;;1.53;1.43;;;8.60;99.90;;;;;;5053455;28;20463;-83
2023/05/02 02:53:02;;;;;;;1.97;1.37;;;8.60;99.90;;;;;;5053037;28;20466;-84
2023/05/02 02:55:38;;;;;;;2.70;1.97;;;8.60;99.90;;;;;;5053118;28;20914;-83
2023/05/02 02:58:18;;;;;;;0.80;0.80;;;8.60;99.90;;;;;;5053324;28;20442;-84
2023/05/02 03:00:46;;;;;;;2.70;1.10;;;8.60;99.90;;;;;;5053232;28;20447;-83
2023/05/02 03:03:14;;;;;;;1.43;1.10;;;8.60;99.90;;;;;;5053204;28;20485;-83
2023/05/02 03:05:42;;;;;;;2.37;1.53;;;8.50;99.90;;;;;;5052871;28;20938;-84
2023/05/02 03:08:09;;;;;;;1.40;1.27;;;8.60;99.90;;;;;;5052877;28;20450;-84
2023/05/02 03:10:37;;;;;;;1.80;1.60;;;8.60;99.90;;;;;;5053017;28;20482;-83
2023/05/02 03:13:04;;;;;;;1.30;1.20;;;8.60;99.90;;;;;;5052721;28;20988;-84
2023/05/02 03:16:17;;;;;;;1.60;0.97;;;8.60;99.90;;;;;;5053087;28;20446;-83
2023/05/02 03:18:44;;;;;;;4.90;2.13;;;8.70;99.90;;;;;;5053103;28;20442;-84
2023/05/02 03:21:11;;;;;;;2.03;1.30;;;8.80;99.90;;;;;;5052949;28;20562;-84
2023/05/02 03:23:37;;;;;;;2.90;1.57;;;8.80;99.90;;;;;;5053024;28;20501;-83
2023/05/02 03:26:06;;;;;;;1.90;1.17;;;8.80;99.90;;;;;;5052649;28;20449;-84
2023/05/02 03:28:32;;;;;;;3.60;1.17;;;8.90;99.90;;;;;;5052953;28;20447;-83
2023/05/02 03:30:59;;;;;;;1.73;1.50;;;8.90;99.90;;;;;;5052850;28;20846;-82
2023/05/02 03:33:26;;;;;;;1.50;1.40;;;8.90;99.90;;;;;;5052945;28;20446;-82
2023/05/02 03:35:52;;;;;;;3.50;1.23;;;9.00;99.90;;;;;;5052826;28;20456;-82
2023/05/02 03:38:19;;;;;;;1.57;1.47;;;9.00;99.90;;;;;;5052882;28;20454;-80
2023/05/02 03:40:46;;;;;;;2.13;1.83;;;9.00;99.90;;;;;;5052810;28;20454;-80
2023/05/02 03:43:14;;;;;;;1.57;1.17;;;9.00;99.90;;;;;;5052780;28;20784;-80
2023/05/02 03:45:41;;;;;;;2.67;1.40;;;8.90;99.90;;;;;;5052446;28;20962;-80
2023/05/02 03:48:07;;;;;;;1.73;1.60;;;8.90;99.90;;;;;;5052760;28;20442;-80
2023/05/02 03:50:34;;;;;;;1.37;1.27;;;8.90;99.90;;;;;;5055906;28;20488;-80
2023/05/02 03:53:01;;;;;;;1.33;1.23;;;8.90;99.90;;;;;;5056017;28;20839;-84
2023/05/02 03:55:28;;;;;;;2.67;1.67;;;8.90;99.90;;;;;;5056314;28;20458;-83
2023/05/02 03:57:55;;;;;;;2.47;1.07;;;9.00;99.90;;;;;;5056068;28;20446;-83
2023/05/02 04:00:23;;;;;;;2.00;1.40;;;9.00;99.90;;;;;;5056281;28;20445;-83
2023/05/02 04:02:50;;;;;;;2.30;1.50;;;9.10;99.90;;;;;;5055799;28;20482;-83
2023/05/02 04:05:17;;;;;;;2.40;1.27;;;9.10;99.90;;;;;;5055921;28;20824;-84
2023/05/02 04:07:44;;;;;;;2.70;1.70;;;9.10;99.90;;;;;;5056138;28;20446;-84
2023/05/02 04:10:15;;;;;;;2.30;2.10;;;9.10;99.90;;;;;;5056021;28;20494;-83
2023/05/02 04:12:43;;;;;;;2.20;2.00;;;9.10;99.90;;;;;;5056022;28;20473;-83
2023/05/02 04:15:10;;;;;;;4.93;1.30;;;9.10;99.90;;;;;;5056024;28;20458;-84
2023/05/02 04:17:38;;;;;;;1.77;0.93;;;9.20;99.90;;;;;;5055661;28;20950;-84
2023/05/02 04:20:06;;;;;;;2.50;1.10;;;9.20;99.90;;;;;;5055619;28;21003;-84
2023/05/02 04:22:33;;;;;;;2.30;1.50;;;9.30;99.90;;;;;;5055855;28;20544;-84
2023/05/02 04:25:00;;;;;;;1.57;1.27;;;9.30;99.90;;;;;;5055598;28;20816;-83
2023/05/02 04:27:27;;;;;;;0.90;0.90;;;9.30;99.90;;;;;;5055770;28;20451;-84
2023/05/02 04:29:54;;;;;;;1.43;1.33;;;9.30;99.90;;;;;;5055324;28;21068;-83
2023/05/02 04:32:20;;;;;;;1.10;1.10;;;9.30;99.90;;;;;;5055245;28;20476;-83
2023/05/02 04:34:48;;;;;;;2.13;1.37;;;9.30;99.90;;;;;;5055589;28;20457;-83
2023/05/02 04:37:15;;;;;;;1.70;1.60;;;9.40;99.90;;;;;;5055523;28;20457;-84
2023/05/02 04:39:42;;;;;;;1.33;1.23;;;9.40;99.90;;;;;;5055483;28;20450;-84
2023/05/02 04:42:09;;;;;;;2.60;1.50;;;9.40;99.90;;;;;;5055408;28;20473;-84
2023/05/02 04:44:35;;;;;;;3.03;1.00;;;9.40;99.90;;;;;;5055416;28;20474;-84
2023/05/02 04:47:03;;;;;;;1.73;1.60;;;9.40;99.90;;;;;;5055347;28;20450;-84
2023/05/02 04:49:30;;;;;;;9.67;1.87;;;9.40;99.90;;;;;;5055067;28;20463;-84
2023/05/02 04:51:59;;;;;;;1.20;0.80;;;9.50;99.90;;;;;;5055210;28;20477;-84
2023/05/02 04:54:26;;;;;;;3.13;1.53;;;9.60;99.90;;;;;;5054981;28;20818;-84
2023/05/02 04:56:53;;;;;;;1.57;1.13;;;9.60;99.90;;;;;;5055167;28;20476;-84
2023/05/02 04:59:20;;;;;;;1.90;1.37;;;9.70;99.90;;;;;;5055155;28;20451;-84
2023/05/02 05:01:46;;;;;;;2.60;1.97;;;9.70;99.90;;;;;;5053464;28;20481;-84
2023/05/02 05:04:13;;;;;;;1.60;1.40;;;9.80;99.90;;;;;;5055072;28;20450;-83
2023/05/02 05:06:40;;;;;;;2.37;1.20;;;10.00;99.90;;;;;;5054902;28;20453;-84
2023/05/02 05:09:08;;;;;;;2.60;2.00;;;10.00;99.90;;;;;;5054661;28;20449;-84
2023/05/02 05:11:35;;;;;;;2.97;1.80;;;10.10;99.90;;;;;;5054428;28;21088;-84
2023/05/02 05:14:03;;;;;;;3.33;1.93;;;10.20;99.90;;;;;;5054907;28;20451;-83
2023/05/02 05:16:30;;;;;;;2.07;1.80;;;10.30;99.90;;;;;;5055015;28;20492;-83
2023/05/02 05:18:57;;;;;;;1.60;1.50;;;10.30;99.90;;;;;;5054773;28;20438;-83
2023/05/02 05:21:24;;;;;;;2.00;1.23;;;10.30;99.90;;;;;;5054305;28;20970;-83
2023/05/02 05:23:50;;;;;;;2.97;1.67;;;10.40;99.90;;;;;;5054663;28;20454;-83
2023/05/02 05:26:19;;;;;;;1.17;1.07;;;10.40;99.90;;;;;;5054658;28;20443;-84
2023/05/02 05:28:46;;;;;;;2.33;1.70;;;10.30;99.90;;;;;;5054577;28;20864;-83
2023/05/02 05:31:15;;;;;;;4.17;2.70;;;10.30;99.90;;;;;;5054233;28;20855;-84
2023/05/02 05:33:42;;;;;;;3.37;2.27;;;10.30;99.90;;;;;;5054432;28;20454;-84
2023/05/02 05:36:10;;;;;;;1.17;1.17;;;10.30;99.90;;;;;;5054396;28;20450;-83
2023/05/02 05:38:37;;;;;;;2.07;1.07;;;10.20;99.90;;;;;;5054022;28;20460;-83
2023/05/02 05:41:06;;;;;;;1.90;1.60;;;10.20;99.90;;;;;;5054248;28;20446;-83
2023/05/02 05:43:34;;;;;;;2.43;1.87;;;10.20;99.90;;;;;;5054253;28;20454;-83
2023/05/02 05:46:01;;;;;;;2.83;1.77;;;10.20;99.90;;;;;;5054201;28;20450;-83
2023/05/02 05:48:28;;;;;;;2.30;2.10;;;10.30;99.90;;;;;;5054131;28;20461;-84
2023/05/02 05:50:55;;;;;;;2.07;1.40;;;10.30;99.90;;;;;;5053976;28;20493;-83
2023/05/02 05:53:22;;;;;;;3.13;1.93;;;10.30;99.90;;;;;;5053755;28;20443;-83
2023/05/02 05:55:48;;;;;;;8.23;2.00;;;10.40;99.90;;;;;;5054544;28;20457;-83
2023/05/02 05:58:15;;;;;;;3.37;2.57;;;10.40;99.90;;;;;;5053997;28;20458;-83
2023/05/02 06:00:43;;;;;;;3.20;1.83;;;10.50;99.90;;;;;;5053807;28;20453;-83
2023/05/02 06:03:10;;;;;;;3.97;1.57;;;10.50;99.90;;;;;;5053583;28;20839;-84
2023/05/02 06:05:36;;;;;;;2.83;1.63;;;10.60;99.90;;;;;;5053933;28;20457;-83
2023/05/02 06:08:03;;;;;;;2.20;2.00;;;10.60;99.90;;;;;;5053837;28;20427;-84
2023/05/02 06:10:31;;;;;;;5.07;2.10;;;10.60;99.90;;;;;;5054099;28;20485;-83
2023/05/02 06:13:04;;;;;;;2.00;1.83;;;10.70;99.90;;;;;;5054146;28;20493;-84
2023/05/02 06:15:33;;;;;;;2.93;2.53;;;10.70;99.90;;;;;;5054139;28;20910;-84
2023/05/02 06:18:01;;;;;;;7.63;2.20;;;10.80;99.90;;;;;;5053823;28;20480;-83
2023/05/02 06:20:28;;;;;;;6.77;2.97;;;10.80;99.90;;;;;;5053430;28;20524;-84
2023/05/02 06:22:55;;;;;;;4.87;2.70;;;10.80;99.90;;;;;;5053585;28;20474;-83
2023/05/02 06:25:22;;;;;;;2.37;2.17;;;10.80;99.90;;;;;;5053674;28;20438;-83
2023/05/02 06:27:49;;;;;;;3.30;2.30;;;10.80;99.90;;;;;;5053208;28;20977;-83
2023/05/02 06:30:15;;;;;;;1.70;1.30;;;10.80;99.90;;;;;;5053683;28;20443;-84
2023/05/02 06:32:42;;;;;;;2.43;2.10;;;10.80;99.90;;;;;;5053053;28;20467;-83
2023/05/02 06:35:11;;;;;;;3.70;2.37;;;10.90;99.90;;;;;;5053392;28;20463;-83
2023/05/02 06:37:38;;;;;;;3.70;2.33;;;10.80;99.90;;;;;;5053392;28;20435;-83
2023/05/02 06:40:06;;;;;;;3.00;2.70;;;11.00;99.90;;;;;;5053323;28;20450;-84
2023/05/02 06:42:33;;;;;;;3.73;2.83;;;11.00;99.90;;;;;;5053196;28;20554;-83
2023/05/02 06:44:59;;;;;;;3.40;2.33;;;11.10;99.90;;;;;;5052946;28;20450;-83
2023/05/02 06:47:27;;;;;;;3.00;2.00;;;11.10;99.90;;;;;;5053261;28;20455;-84
2023/05/02 06:49:54;;;;;;;3.60;1.93;;;11.20;99.90;;;;;;5052974;28;20938;-84
2023/05/02 06:52:22;;;;;;;6.30;2.63;;;11.20;99.90;;;;;;5053159;28;20493;-84
2023/05/02 06:54:49;;;;;;;6.63;3.00;;;11.20;99.90;;;;;;5052908;28;20965;-84
2023/05/02 06:57:16;;;;;;;5.27;2.33;;;11.30;99.90;;;;;;5053192;28;20529;-84
2023/05/02 06:59:42;;;;;;;3.10;2.67;;;11.30;99.90;;;;;;5052868;28;20972;-84
2023/05/02 07:02:10;;;;;;;8.10;3.17;;;11.40;99.90;;;;;;5052869;28;20482;-84
2023/05/02 07:04:36;;;;;;;4.60;2.67;;;11.40;99.90;;;;;;5053114;28;20455;-84
2023/05/02 07:07:03;;;;;;;6.10;3.20;;;11.40;99.90;;;;;;5053173;28;20813;-84
2023/05/02 07:09:31;;;;;;;5.00;3.23;;;11.50;99.90;;;;;;5053051;28;20454;-85
2023/05/02 07:11:58;;;;;;;5.60;3.63;;;11.50;99.90;;;;;;5052623;28;21006;-84
2023/05/02 07:14:25;;;;;;;7.77;4.10;;;11.50;99.90;;;;;;5054061;28;20959;-84
2023/05/02 07:16:51;;;;;;;7.33;3.50;;;11.50;99.90;;;;;;5055192;28;20453;-84
2023/05/02 07:19:18;;;;;;;3.70;3.27;;;11.50;99.90;;;;;;5052989;28;20548;-84
2023/05/02 07:21:45;;;;;;;4.97;3.87;;;11.50;99.90;;;;;;5052877;28;20470;-84
2023/05/02 07:24:12;;;;;;;10.43;4.37;;;11.50;99.90;;;;;;5054203;28;20834;-84
2023/05/02 07:26:40;;;;;;;8.03;4.13;;;11.50;99.90;;;;;;5056824;28;20457;-84
2023/05/02 07:29:08;;;;;;;11.33;3.87;;;11.60;99.90;;;;;;5057040;28;20930;-84
2023/05/02 07:31:35;;;;;;;5.90;4.43;;;11.70;99.90;;;;;;5056625;28;20489;-85
2023/05/02 07:34:01;;;;;;;3.40;2.37;;;11.70;99.90;;;;;;5056832;28;20454;-85
2023/05/02 07:36:28;;;;;;;7.93;3.67;;;11.80;99.90;;;;;;5056456;28;20826;-85
2023/05/02 07:38:55;;;;;;;5.67;4.37;;;11.90;99.90;;;;;;5056772;28;20446;-85
2023/05/02 07:41:21;;;;;;;7.00;4.07;;;12.00;99.90;;;;;;5056351;28;20454;-85
2023/05/02 07:43:50;;;;;;;6.73;3.90;;;12.10;99.90;;;;;;5056745;28;20451;-85
2023/05/02 07:46:16;;;;;;;6.83;4.50;;;12.20;99.90;;;;;;5056538;28;20443;-85
2023/05/02 07:48:43;;;;;;;7.30;4.33;;;12.20;99.90;;;;;;5056335;28;20438;-85
2023/05/02 07:51:11;;;;;;;4.30;3.83;;;12.40;99.90;;;;;;5056388;28;20493;-85
2023/05/02 07:53:37;;;;;;;8.90;5.43;;;12.50;99.90;;;;;;5056190;28;20508;-86
2023/05/02 07:56:05;;;;;;;11.60;5.73;;;12.70;99.90;;;;;;5056160;28;20431;-85
2023/05/02 07:58:32;;;;;;;7.93;5.20;;;12.80;99.90;;;;;;5056329;28;20454;-85
2023/05/02 08:01:00;;;;;;;9.27;5.27;;;12.90;99.90;;;;;;5056053;28;20503;-85
2023/05/02 08:03:28;;;;;;;10.70;6.00;;;12.90;99.90;;;;;;5056302;28;20447;-86
2023/05/02 08:05:55;;;;;;;12.10;6.00;;;13.00;99.90;;;;;;5056003;28;20976;-86
2023/05/02 08:08:21;;;;;;;9.90;5.77;;;12.90;99.90;;;;;;5055953;28;20438;-86
2023/05/02 08:10:50;;;;;;;9.70;5.03;;;12.90;99.90;;;;;;5056130;28;20461;-86
2023/05/02 08:13:16;;;;;;;11.77;5.97;;;12.80;99.90;;;;;;5056137;28;20505;-86
2023/05/02 08:15:43;;;;;;;15.83;7.07;;;12.70;99.90;;;;;;5056126;28;20794;-86
2023/05/02 08:18:11;;;;;;;12.53;7.30;;;12.70;99.90;;;;;;5056073;28;20462;-86
2023/05/02 08:20:38;;;;;;;16.50;7.03;;;12.70;99.90;;;;;;5055997;28;20450;-86
2023/05/02 08:23:05;;;;;;;16.30;7.20;;;12.70;99.90;;;;;;5055923;28;20494;-86
2023/05/02 08:25:32;;;;;;;17.50;7.77;;;12.80;99.90;;;;;;5055961;28;20457;-86
2023/05/02 08:27:58;;;;;;;12.30;6.97;;;12.80;99.90;;;;;;5056306;28;20458;-86
2023/05/02 08:30:25;;;;;;;15.53;7.43;;;12.90;99.90;;;;;;5055838;28;20447;-86
2023/05/02 08:32:52;;;;;;;14.97;7.87;;;13.00;99.90;;;;;;5055627;28;20501;-86
2023/05/02 08:35:20;;;;;;;11.60;8.27;;;13.10;99.90;;;;;;5055693;28;20455;-86
2023/05/02 08:37:47;;;;;;;14.47;7.27;;;13.20;99.90;;;;;;5056148;28;20455;-86
2023/05/02 08:40:14;;;;;;;16.73;7.90;;;13.30;99.90;;;;;;5055642;28;20446;-86
2023/05/02 08:42:43;;;;;;;14.80;6.37;;;13.40;99.90;;;;;;5055642;28;20455;-86
2023/05/02 08:45:12;;;;;;;12.40;8.27;;;13.60;99.90;;;;;;5055588;28;20458;-86
2023/05/02 08:47:40;;;;;;;14.87;8.13;;;13.90;99.90;;;;;;5055188;28;20462;-86
2023/05/02 08:50:09;;;;;;;18.53;8.30;;;14.10;99.90;;;;;;5055538;28;20450;-86
2023/05/02 08:52:37;;;;;;;20.30;8.93;;;14.30;99.90;;;;;;5055205;28;20502;-86
2023/05/02 08:55:06;;;;;;;17.00;7.33;;;14.60;99.90;;;;;;5055421;28;20457;-86
2023/05/02 08:57:33;;;;;;;14.77;7.63;;;14.80;99.90;;;;;;5055236;28;20822;-86
2023/05/02 09:00:00;;;;;;;19.30;7.70;;;15.10;99.90;;;;;;5055241;28;20442;-86
2023/05/02 09:02:43;;;;;;;13.83;7.60;;;15.50;99.90;;;;;;5054900;28;20479;-86
2023/05/02 09:05:12;;;;;;;15.77;7.57;;;16.10;99.90;;;;;;5055475;28;20448;-87
2023/05/02 09:07:47;;;;;;;17.20;7.97;;;16.80;99.90;;;;;;5055165;28;20451;-86
2023/05/02 09:10:14;;;;;;;12.20;8.23;;;17.50;99.90;;;;;;5054844;28;20910;-86
2023/05/02 09:12:41;;;;;;;21.20;8.53;;;17.70;99.90;;;;;;5054834;28;20485;-86
2023/05/02 09:15:12;;;;;;;14.80;7.80;;;17.80;99.90;;;;;;5055172;28;20450;-86
2023/05/02 09:17:40;;;;;;;15.03;8.13;;;17.60;99.90;;;;;;5055112;28;20945;-87
2023/05/02 09:20:08;;;;;;;16.33;8.00;;;17.40;99.90;;;;;;5054813;28;20451;-87
2023/05/02 09:22:35;;;;;;;15.53;8.67;;;17.10;99.90;;;;;;5054465;28;21007;-83
2023/05/02 09:25:05;;;;;;;16.87;9.23;;;16.90;99.90;;;;;;5055071;28;20445;-88
2023/05/02 09:27:49;;;;;;;16.70;8.30;;;16.70;99.90;;;;;;5055275;28;20450;-88
2023/05/02 09:30:20;;;;;;;16.57;9.03;;;16.30;99.90;;;;;;5055085;28;20439;-87
2023/05/02 09:32:50;;;;;;;11.87;7.50;;;16.00;99.90;;;;;;5054673;28;20552;-87
2023/05/02 09:35:22;;;;;;;15.80;7.53;;;15.80;99.90;;;;;;5055093;28;20454;-88
2023/05/02 09:37:52;;;;;;;14.47;7.47;;;15.90;99.90;;;;;;5054783;28;20473;-88
2023/05/02 09:40:29;;;;;;;17.23;9.47;;;16.40;99.90;;;;;;5054923;28;20442;-88
2023/05/02 09:42:56;;;;;;;15.30;8.83;;;17.10;99.90;;;;;;5054424;28;20978;-87
2023/05/02 09:45:24;;;;;;;17.10;8.93;;;17.60;99.90;;;;;;5054801;28;20945;-88
2023/05/02 09:47:52;;;;;;;12.50;6.93;;;18.00;99.90;;;;;;5054259;28;20446;-88
2023/05/02 09:50:36;;;;;;;11.73;7.70;;;18.20;99.90;;;;;;5054751;28;20439;-87
2023/05/02 09:53:04;;;;;;;12.87;7.23;;;18.50;99.90;;;;;;5054478;28;20565;-88
2023/05/02 09:55:32;;;;;;;13.00;7.43;;;18.70;99.90;;;;;;5054514;28;20459;-88
2023/05/02 09:58:00;;;;;;;11.03;6.83;;;18.90;99.90;;;;;;5054264;28;20435;-87
2023/05/02 10:00:40;;;;;;;14.80;6.30;;;19.10;99.90;;;;;;5054738;28;20441;-87
2023/05/02 10:03:08;;;;;;;12.30;7.30;;;19.40;99.90;;;;;;5054293;28;20461;-87
2023/05/02 10:05:37;;;;;;;17.70;7.67;;;19.40;99.90;;;;;;5054658;28;20482;-87
2023/05/02 10:08:06;;;;;;;15.47;8.40;;;19.20;99.90;;;;;;5054215;28;20442;-88
2023/05/02 10:10:37;;;;;;;11.33;7.30;;;19.10;99.90;;;;;;5053970;28;20439;-88
2023/05/02 10:13:05;;;;;;;13.13;7.73;;;19.70;99.90;;;;;;5054235;28;20904;-88
2023/05/02 10:15:33;;;;;;;11.87;7.70;;;20.00;99.90;;;;;;5054210;28;20446;-88
2023/05/02 10:18:01;;;;;;;11.70;7.13;;;20.10;99.90;;;;;;5054033;28;20480;-87
2023/05/02 10:20:32;;;;;;;13.97;8.33;;;20.10;99.90;;;;;;5053943;28;20454;-87
2023/05/02 10:23:00;;;;;;;13.33;6.93;;;20.30;99.90;;;;;;5053635;28;21035;-87
2023/05/02 10:25:28;;;;;;;10.43;7.50;;;20.30;99.90;;;;;;5053931;28;20452;-87
2023/05/02 10:27:58;;;;;;;11.13;6.67;;;20.40;99.90;;;;;;5053836;28;20473;-87
2023/05/02 10:30:26;;;;;;;11.83;7.17;;;20.50;99.90;;;;;;5053895;28;20458;-88
2023/05/02 10:32:54;;;;;;;12.40;8.33;;;20.60;99.90;;;;;;5053384;28;20825;-87
2023/05/02 10:35:23;;;;;;;17.43;7.13;;;20.40;99.90;;;;;;5053838;28;20450;-87
2023/05/02 10:37:50;;;;;;;12.60;8.10;;;20.30;99.90;;;;;;5053847;28;20453;-87
2023/05/02 10:40:18;;;;;;;12.87;6.53;;;20.50;99.90;;;;;;5053421;28;20456;-87
2023/05/02 10:42:49;;;;;;;6.33;4.80;;;20.60;99.90;;;;;;5053565;28;20458;-87
2023/05/02 10:45:32;;;;;;;13.77;7.07;;;20.70;99.90;;;;;;5053841;28;20438;-87
2023/05/02 10:48:17;;;;;;;12.00;5.27;;;20.80;99.90;;;;;;5053746;28;20509;-87
2023/05/02 10:50:46;;;;;;;7.73;5.23;;;20.90;99.90;;;;;;5052902;28;20449;-87
2023/05/02 10:53:35;;;;;;;6.20;4.10;;;21.00;99.90;;;;;;5053189;28;20481;-86
2023/05/02 10:56:10;;;;;;;8.43;5.50;;;21.50;99.90;;;;;;5050007;28;20457;-84
2023/05/02 10:58:37;;;;;;;9.63;5.97;;;22.30;99.90;;;;;;5053626;28;20445;-85
2023/05/02 11:01:35;;;;;;;6.80;4.93;;;22.80;99.90;;;;;;5057782;28;20976;-88
2023/05/02 11:04:03;;;;;;;8.67;5.60;;;23.10;99.90;;;;;;5057966;28;20952;-86
2023/05/02 11:06:32;;;;;;;6.67;5.17;;;23.00;99.90;;;;;;5057665;28;20210;-87
2023/05/02 11:09:33;;;;;;;6.73;4.43;;;22.50;99.90;;;;;;5059880;28;20302;-86
2023/05/02 11:12:03;;;;;;;6.73;4.80;;;22.00;99.90;;;;;;5063447;28;20223;-85
2023/05/02 11:14:47;;;;;;;13.60;6.10;;;21.40;99.90;;;;;;5065037;28;20546;-86
2023/05/02 11:17:16;;;;;;;6.67;5.23;;;21.10;99.90;;;;;;5061714;28;20867;-86
2023/05/02 11:20:22;;;;;;;12.33;7.00;;;20.90;99.90;;;;;;5057193;28;20937;-86
2023/05/02 11:22:50;;;;;;;9.70;5.90;;;20.70;99.90;;;;;;5057398;28;20469;-86
2023/05/02 11:25:31;;;;;;;9.40;5.27;;;20.50;99.90;;;;;;5057768;28;20457;-86
2023/05/02 11:27:58;;;;;;;9.33;5.10;;;20.30;99.90;;;;;;5057252;28;20438;-86
2023/05/02 11:30:42;;;;;;;9.97;5.20;;;20.10;99.90;;;;;;5057213;28;20457;-86
2023/05/02 11:33:18;;;;;;;9.00;5.20;;;19.80;99.90;;;;;;5056991;28;20485;-86
2023/05/02 11:35:47;;;;;;;7.17;5.90;;;19.60;99.90;;;;;;5056466;28;20458;-85
2023/05/02 11:38:16;;;;;;;9.77;5.60;;;19.50;99.90;;;;;;5056987;28;20457;-86
2023/05/02 11:40:51;;;;;;;11.83;6.13;;;19.40;99.90;;;;;;5056826;28;20446;-86
2023/05/02 11:43:20;;;;;;;8.43;6.10;;;19.30;99.90;;;;;;5056967;28;20430;-85
2023/05/02 11:45:47;;;;;;;8.57;5.07;;;19.30;99.90;;;;;;5056633;28;20450;-85
2023/05/02 11:48:17;;;;;;;9.17;5.93;;;19.20;99.90;;;;;;5056323;28;20960;-85
2023/05/02 11:50:45;;;;;;;9.70;5.00;;;19.20;99.90;;;;;;5057317;28;20449;-86
2023/05/02 11:53:13;;;;;;;8.83;5.80;;;19.20;99.90;;;;;;5056611;28;20481;-86
2023/05/02 11:55:46;;;;;;;9.80;6.47;;;19.00;99.90;;;;;;5056621;28;20458;-86
2023/05/02 11:58:14;;;;;;;13.80;6.40;;;18.80;99.90;;;;;;5056583;28;20438;-87
2023/05/02 12:00:45;;;;;;;8.43;5.33;;;18.90;99.90;;;;;;5056545;28;20458;-85
2023/05/02 12:03:22;;;;;;;9.60;5.20;;;19.10;99.90;;;;;;5056404;28;20560;-85
2023/05/02 12:05:48;;;;;;;11.43;6.97;;;19.40;99.90;;;;;;5056207;28;20434;-86
2023/05/02 12:08:23;;;;;;;13.00;6.47;;;19.40;99.90;;;;;;5056396;28;20533;-86
2023/05/02 12:10:52;;;;;;;9.00;5.60;;;19.50;99.90;;;;;;5056001;28;20422;-86
2023/05/02 12:13:20;;;;;;;11.40;6.47;;;19.50;99.90;;;;;;5056302;28;20582;-86
2023/05/02 12:15:49;;;;;;;10.90;6.20;;;19.50;99.90;;;;;;5055922;28;20438;-86
2023/05/02 12:18:16;;;;;;;13.43;7.07;;;19.50;99.90;;;;;;5056501;28;20825;-86
2023/05/02 12:20:46;;;;;;;6.57;4.70;;;19.40;99.90;;;;;;5056008;28;20454;-86
2023/05/02 12:23:13;;;;;;;12.40;6.50;;;19.20;99.90;;;;;;5056254;28;20462;-86
2023/05/02 12:25:41;;;;;;;10.37;5.90;;;18.90;99.90;;;;;;5055935;28;20450;-86
2023/05/02 12:28:09;;;;;;;11.40;6.80;;;18.50;99.90;;;;;;5055957;28;20809;-86
2023/05/02 12:30:38;;;;;;;11.20;6.07;;;18.20;99.90;;;;;;5055590;28;20965;-86
2023/05/02 12:33:06;;;;;;;14.57;7.70;;;18.00;99.90;;;;;;5055662;28;20522;-86
2023/05/02 12:35:34;;;;;;;15.77;6.90;;;17.90;99.90;;;;;;5055748;28;20450;-86
2023/05/02 12:38:19;;;;;;;14.63;6.23;;;17.80;99.90;;;;;;5055718;28;20465;-86
2023/05/02 12:40:50;;;;;;;11.77;6.07;;;17.80;99.90;;;;;;5054605;28;20831;-86
2023/05/02 12:43:18;;;;;;;13.03;6.50;;;17.70;99.90;;;;;;5055729;28;20461;-86
2023/05/02 12:45:47;;;;;;;10.90;6.17;;;17.70;99.90;;;;;;5055639;28;20529;-86
2023/05/02 12:48:21;;;;;;;10.50;7.03;;;17.60;99.90;;;;;;5055529;28;20451;-86
2023/05/02 12:50:48;;;;;;;16.27;7.23;;;17.60;99.90;;;;;;5055559;28;20452;-85
2023/05/02 12:53:15;;;;;;;15.13;6.77;;;17.60;99.90;;;;;;5054950;28;20485;-85
2023/05/02 12:55:43;;;;;;;11.13;6.73;;;17.60;99.90;;;;;;5055281;28;20496;-86
2023/05/02 12:58:12;;;;;;;13.23;5.67;;;17.60;99.90;;;;;;5054993;28;20946;-84